Terminal Aerodrome Forecast
Issued by NWS

Home | Current Version | Previous Version | Text Only | Print | Product List | Glossary On
Versions: 1 2 3 4 5 6 7 8 9 10 11 12 13 14 15 16 17 18 19 20 21 22 23 24 25 26 27 28 29 30 31 32 33 34 35 36
577
FTUS41 KCAR 191428 AAA
TAFBHB
TAF AMD
KBHB 191428Z 1914/2012 VRB03KT 2SM BR VCSH OVC003
      TEMPO 1914/1918 3/4SM -DZ BR
     FM191800 08008KT P6SM VCSH OVC004
     FM200200 08005KT 2SM -RA BR OVC002=

USA.gov is the U.S. government's official web portal to all federal, state and local government web resources and services.